sensor_id;sensor_type;location;lat;lon;timestamp;temperature;humidity
35700;DHT22;21818;51.078;12.108;2024-02-14T00:01:51;11.30;81.90
35700;DHT22;21818;51.078;12.108;2024-02-14T00:04:16;11.30;82.00
35700;DHT22;21818;51.078;12.108;2024-02-14T00:06:42;11.30;82.00
35700;DHT22;21818;51.078;12.108;2024-02-14T00:09:08;11.30;82.20
35700;DHT22;21818;51.078;12.108;2024-02-14T00:11:34;11.30;82.20
35700;DHT22;21818;51.078;12.108;2024-02-14T00:13:59;11.30;82.20
35700;DHT22;21818;51.078;12.108;2024-02-14T00:16:25;11.30;82.00
35700;DHT22;21818;51.078;12.108;2024-02-14T00:18:51;11.30;82.00
35700;DHT22;21818;51.078;12.108;2024-02-14T00:21:16;11.30;82.10
35700;DHT22;21818;51.078;12.108;2024-02-14T00:23:42;11.40;82.10
35700;DHT22;21818;51.078;12.108;2024-02-14T00:26:09;11.30;82.00
35700;DHT22;21818;51.078;12.108;2024-02-14T00:28:34;11.30;82.10
35700;DHT22;21818;51.078;12.108;2024-02-14T00:31:00;11.30;82.10
35700;DHT22;21818;51.078;12.108;2024-02-14T00:33:25;11.40;82.10
35700;DHT22;21818;51.078;12.108;2024-02-14T00:35:51;11.30;82.20
35700;DHT22;21818;51.078;12.108;2024-02-14T00:38:17;11.30;82.20
35700;DHT22;21818;51.078;12.108;2024-02-14T00:40:43;11.30;82.20
35700;DHT22;21818;51.078;12.108;2024-02-14T00:43:08;11.30;82.20
35700;DHT22;21818;51.078;12.108;2024-02-14T00:45:34;11.30;82.20
35700;DHT22;21818;51.078;12.108;2024-02-14T00:48:01;11.20;82.20
35700;DHT22;21818;51.078;12.108;2024-02-14T00:50:26;11.30;82.20
35700;DHT22;21818;51.078;12.108;2024-02-14T00:52:52;11.20;82.20
35700;DHT22;21818;51.078;12.108;2024-02-14T00:55:17;11.30;82.30
35700;DHT22;21818;51.078;12.108;2024-02-14T00:57:43;11.30;82.30
35700;DHT22;21818;51.078;12.108;2024-02-14T01:00:09;11.40;82.30
35700;DHT22;21818;51.078;12.108;2024-02-14T01:02:34;11.40;82.20
35700;DHT22;21818;51.078;12.108;2024-02-14T01:05:00;11.40;82.30
35700;DHT22;21818;51.078;12.108;2024-02-14T01:07:26;11.40;82.30
35700;DHT22;21818;51.078;12.108;2024-02-14T01:09:52;11.30;82.40
35700;DHT22;21818;51.078;12.108;2024-02-14T01:12:17;11.40;82.40
35700;DHT22;21818;51.078;12.108;2024-02-14T01:14:44;11.40;82.50
35700;DHT22;21818;51.078;12.108;2024-02-14T01:17:10;11.40;82.50
35700;DHT22;21818;51.078;12.108;2024-02-14T01:19:36;11.50;82.40
35700;DHT22;21818;51.078;12.108;2024-02-14T01:22:02;11.60;82.30
35700;DHT22;21818;51.078;12.108;2024-02-14T01:24:28;11.70;82.70
35700;DHT22;21818;51.078;12.108;2024-02-14T01:26:55;11.80;82.60
35700;DHT22;21818;51.078;12.108;2024-02-14T01:29:21;11.80;82.40
35700;DHT22;21818;51.078;12.108;2024-02-14T01:31:47;11.90;82.40
35700;DHT22;21818;51.078;12.108;2024-02-14T01:34:12;11.90;82.20
35700;DHT22;21818;51.078;12.108;2024-02-14T01:36:38;12.00;82.30
35700;DHT22;21818;51.078;12.108;2024-02-14T01:39:04;12.00;82.50
35700;DHT22;21818;51.078;12.108;2024-02-14T01:41:36;11.90;82.30
35700;DHT22;21818;51.078;12.108;2024-02-14T01:44:01;12.00;82.30
35700;DHT22;21818;51.078;12.108;2024-02-14T01:46:27;12.00;82.40
35700;DHT22;21818;51.078;12.108;2024-02-14T01:48:53;12.00;82.10
35700;DHT22;21818;51.078;12.108;2024-02-14T01:51:20;11.90;82.20
35700;DHT22;21818;51.078;12.108;2024-02-14T01:53:47;11.90;82.40
35700;DHT22;21818;51.078;12.108;2024-02-14T01:56:12;11.90;82.40
35700;DHT22;21818;51.078;12.108;2024-02-14T01:58:38;11.80;82.40
35700;DHT22;21818;51.078;12.108;2024-02-14T02:01:04;11.80;82.40
35700;DHT22;21818;51.078;12.108;2024-02-14T02:03:30;11.70;82.40
35700;DHT22;21818;51.078;12.108;2024-02-14T02:06:00;11.70;82.70
35700;DHT22;21818;51.078;12.108;2024-02-14T02:08:26;11.60;82.70
35700;DHT22;21818;51.078;12.108;2024-02-14T02:10:52;11.60;82.80
35700;DHT22;21818;51.078;12.108;2024-02-14T02:13:17;11.60;82.90
35700;DHT22;21818;51.078;12.108;2024-02-14T02:15:43;11.70;82.80
35700;DHT22;21818;51.078;12.108;2024-02-14T02:18:12;11.70;82.80
35700;DHT22;21818;51.078;12.108;2024-02-14T02:20:38;11.70;82.70
35700;DHT22;21818;51.078;12.108;2024-02-14T02:23:04;11.70;82.70
35700;DHT22;21818;51.078;12.108;2024-02-14T02:25:30;11.70;82.70
35700;DHT22;21818;51.078;12.108;2024-02-14T02:27:56;11.80;82.70
35700;DHT22;21818;51.078;12.108;2024-02-14T02:30:25;11.80;82.60
35700;DHT22;21818;51.078;12.108;2024-02-14T02:32:51;11.90;82.70
35700;DHT22;21818;51.078;12.108;2024-02-14T02:35:17;11.90;82.60
35700;DHT22;21818;51.078;12.108;2024-02-14T02:37:45;11.90;82.60
35700;DHT22;21818;51.078;12.108;2024-02-14T02:40:13;11.90;82.60
35700;DHT22;21818;51.078;12.108;2024-02-14T02:42:39;11.90;82.60
35700;DHT22;21818;51.078;12.108;2024-02-14T02:45:05;12.00;82.60
35700;DHT22;21818;51.078;12.108;2024-02-14T02:47:34;11.90;82.60
35700;DHT22;21818;51.078;12.108;2024-02-14T02:50:00;11.90;82.70
35700;DHT22;21818;51.078;12.108;2024-02-14T02:52:29;11.90;82.50
35700;DHT22;21818;51.078;12.108;2024-02-14T02:54:56;11.90;82.50
35700;DHT22;21818;51.078;12.108;2024-02-14T02:57:21;11.90;82.60
35700;DHT22;21818;51.078;12.108;2024-02-14T02:59:47;12.00;82.50
35700;DHT22;21818;51.078;12.108;2024-02-14T03:02:17;12.00;82.90
35700;DHT22;21818;51.078;12.108;2024-02-14T03:04:42;12.00;82.30
35700;DHT22;21818;51.078;12.108;2024-02-14T03:07:08;12.00;82.30
35700;DHT22;21818;51.078;12.108;2024-02-14T03:09:37;12.00;82.40
35700;DHT22;21818;51.078;12.108;2024-02-14T03:12:03;12.10;82.20
35700;DHT22;21818;51.078;12.108;2024-02-14T03:14:32;12.10;82.00
35700;DHT22;21818;51.078;12.108;2024-02-14T03:17:02;12.10;82.00
35700;DHT22;21818;51.078;12.108;2024-02-14T03:19:28;12.10;81.90
35700;DHT22;21818;51.078;12.108;2024-02-14T03:21:57;12.00;81.90
35700;DHT22;21818;51.078;12.108;2024-02-14T03:24:23;12.00;81.90
35700;DHT22;21818;51.078;12.108;2024-02-14T03:26:53;11.90;82.00
35700;DHT22;21818;51.078;12.108;2024-02-14T03:29:20;11.90;82.10
35700;DHT22;21818;51.078;12.108;2024-02-14T03:31:46;11.90;82.00
35700;DHT22;21818;51.078;12.108;2024-02-14T03:34:12;11.90;81.90
35700;DHT22;21818;51.078;12.108;2024-02-14T03:36:38;11.90;81.90
35700;DHT22;21818;51.078;12.108;2024-02-14T03:39:05;11.90;82.00
35700;DHT22;21818;51.078;12.108;2024-02-14T03:41:31;11.80;81.90
35700;DHT22;21818;51.078;12.108;2024-02-14T03:43:56;11.80;81.90
35700;DHT22;21818;51.078;12.108;2024-02-14T03:46:27;11.80;82.10
35700;DHT22;21818;51.078;12.108;2024-02-14T03:48:54;11.90;82.00
35700;DHT22;21818;51.078;12.108;2024-02-14T03:51:19;11.80;82.00
35700;DHT22;21818;51.078;12.108;2024-02-14T03:53:46;11.90;82.10
35700;DHT22;21818;51.078;12.108;2024-02-14T03:56:11;11.80;82.00
35700;DHT22;21818;51.078;12.108;2024-02-14T03:58:38;11.80;82.00
35700;DHT22;21818;51.078;12.108;2024-02-14T04:01:04;11.90;82.20
35700;DHT22;21818;51.078;12.108;2024-02-14T04:03:30;12.00;82.20
35700;DHT22;21818;51.078;12.108;2024-02-14T04:05:55;12.00;82.00
35700;DHT22;21818;51.078;12.108;2024-02-14T04:08:21;12.20;81.80
35700;DHT22;21818;51.078;12.108;2024-02-14T04:10:47;12.20;81.70
35700;DHT22;21818;51.078;12.108;2024-02-14T04:13:15;12.20;81.60
35700;DHT22;21818;51.078;12.108;2024-02-14T04:15:41;12.30;81.60
35700;DHT22;21818;51.078;12.108;2024-02-14T04:18:08;12.30;81.50
35700;DHT22;21818;51.078;12.108;2024-02-14T04:20:34;12.40;81.40
35700;DHT22;21818;51.078;12.108;2024-02-14T04:23:00;12.40;81.30
35700;DHT22;21818;51.078;12.108;2024-02-14T04:25:25;12.40;81.30
35700;DHT22;21818;51.078;12.108;2024-02-14T04:27:51;12.40;81.40
35700;DHT22;21818;51.078;12.108;2024-02-14T04:30:17;12.30;81.30
35700;DHT22;21818;51.078;12.108;2024-02-14T04:32:42;12.30;81.30
35700;DHT22;21818;51.078;12.108;2024-02-14T04:35:09;12.30;81.20
35700;DHT22;21818;51.078;12.108;2024-02-14T04:37:34;12.40;81.30
35700;DHT22;21818;51.078;12.108;2024-02-14T04:40:01;12.40;81.40
35700;DHT22;21818;51.078;12.108;2024-02-14T04:42:26;12.50;81.20
35700;DHT22;21818;51.078;12.108;2024-02-14T04:44:52;12.50;82.10
35700;DHT22;21818;51.078;12.108;2024-02-14T04:47:17;12.50;81.90
35700;DHT22;21818;51.078;12.108;2024-02-14T04:49:43;12.60;82.00
35700;DHT22;21818;51.078;12.108;2024-02-14T04:52:08;12.60;81.90
35700;DHT22;21818;51.078;12.108;2024-02-14T04:54:34;12.60;81.80
35700;DHT22;21818;51.078;12.108;2024-02-14T04:57:00;12.60;81.60
35700;DHT22;21818;51.078;12.108;2024-02-14T04:59:25;12.60;81.40
35700;DHT22;21818;51.078;12.108;2024-02-14T05:01:51;12.60;81.40
35700;DHT22;21818;51.078;12.108;2024-02-14T05:04:18;12.60;81.30
35700;DHT22;21818;51.078;12.108;2024-02-14T05:06:44;12.50;81.10
35700;DHT22;21818;51.078;12.108;2024-02-14T05:09:10;12.50;81.10
35700;DHT22;21818;51.078;12.108;2024-02-14T05:11:40;12.50;81.00
35700;DHT22;21818;51.078;12.108;2024-02-14T05:14:05;12.50;81.00
35700;DHT22;21818;51.078;12.108;2024-02-14T05:16:31;12.50;80.90
35700;DHT22;21818;51.078;12.108;2024-02-14T05:18:57;12.60;80.80
35700;DHT22;21818;51.078;12.108;2024-02-14T05:21:22;12.60;80.70
35700;DHT22;21818;51.078;12.108;2024-02-14T05:23:48;12.60;80.50
35700;DHT22;21818;51.078;12.108;2024-02-14T05:26:13;12.60;80.30
35700;DHT22;21818;51.078;12.108;2024-02-14T05:28:39;12.60;80.40
35700;DHT22;21818;51.078;12.108;2024-02-14T05:31:05;12.60;80.10
35700;DHT22;21818;51.078;12.108;2024-02-14T05:33:31;12.60;80.20
35700;DHT22;21818;51.078;12.108;2024-02-14T05:35:56;12.60;80.10
35700;DHT22;21818;51.078;12.108;2024-02-14T05:38:22;12.60;80.00
35700;DHT22;21818;51.078;12.108;2024-02-14T05:40:48;12.60;79.90
35700;DHT22;21818;51.078;12.108;2024-02-14T05:43:14;12.60;79.80
35700;DHT22;21818;51.078;12.108;2024-02-14T05:45:39;12.60;79.80
35700;DHT22;21818;51.078;12.108;2024-02-14T05:48:06;12.60;79.90
35700;DHT22;21818;51.078;12.108;2024-02-14T05:50:32;12.80;79.60
35700;DHT22;21818;51.078;12.108;2024-02-14T05:52:58;13.00;79.30
35700;DHT22;21818;51.078;12.108;2024-02-14T05:55:24;13.10;79.10
35700;DHT22;21818;51.078;12.108;2024-02-14T05:57:50;13.20;78.90
35700;DHT22;21818;51.078;12.108;2024-02-14T06:00:18;13.20;78.80
35700;DHT22;21818;51.078;12.108;2024-02-14T06:02:44;13.30;78.70
35700;DHT22;21818;51.078;12.108;2024-02-14T06:05:10;13.30;78.60
35700;DHT22;21818;51.078;12.108;2024-02-14T06:07:39;13.30;78.70
35700;DHT22;21818;51.078;12.108;2024-02-14T06:10:08;13.30;78.50
35700;DHT22;21818;51.078;12.108;2024-02-14T06:12:34;13.30;78.50
35700;DHT22;21818;51.078;12.108;2024-02-14T06:15:01;13.40;78.60
35700;DHT22;21818;51.078;12.108;2024-02-14T06:17:26;13.40;78.50
35700;DHT22;21818;51.078;12.108;2024-02-14T06:19:53;13.40;78.50
35700;DHT22;21818;51.078;12.108;2024-02-14T06:22:18;13.40;78.50
35700;DHT22;21818;51.078;12.108;2024-02-14T06:24:44;13.40;78.50
35700;DHT22;21818;51.078;12.108;2024-02-14T06:27:09;13.40;78.50
35700;DHT22;21818;51.078;12.108;2024-02-14T06:29:35;13.40;78.50
35700;DHT22;21818;51.078;12.108;2024-02-14T06:32:01;13.40;78.50
35700;DHT22;21818;51.078;12.108;2024-02-14T06:34:26;13.40;78.50
35700;DHT22;21818;51.078;12.108;2024-02-14T06:36:53;13.40;78.50
35700;DHT22;21818;51.078;12.108;2024-02-14T06:39:19;13.40;78.40
35700;DHT22;21818;51.078;12.108;2024-02-14T06:41:46;13.40;78.40
35700;DHT22;21818;51.078;12.108;2024-02-14T06:44:12;13.40;78.40
35700;DHT22;21818;51.078;12.108;2024-02-14T06:46:39;13.50;78.40
35700;DHT22;21818;51.078;12.108;2024-02-14T06:49:04;13.50;78.40
35700;DHT22;21818;51.078;12.108;2024-02-14T06:51:30;13.50;78.90
35700;DHT22;21818;51.078;12.108;2024-02-14T06:53:56;13.60;79.10
35700;DHT22;21818;51.078;12.108;2024-02-14T06:56:22;13.60;79.20
35700;DHT22;21818;51.078;12.108;2024-02-14T06:58:47;13.60;79.20
35700;DHT22;21818;51.078;12.108;2024-02-14T07:01:18;13.60;79.30
35700;DHT22;21818;51.078;12.108;2024-02-14T07:03:50;13.60;79.30
35700;DHT22;21818;51.078;12.108;2024-02-14T07:06:16;13.60;79.30
35700;DHT22;21818;51.078;12.108;2024-02-14T07:08:43;13.60;79.40
35700;DHT22;21818;51.078;12.108;2024-02-14T07:11:09;13.60;79.40
35700;DHT22;21818;51.078;12.108;2024-02-14T07:13:34;13.60;79.30
35700;DHT22;21818;51.078;12.108;2024-02-14T07:16:00;13.60;79.30
35700;DHT22;21818;51.078;12.108;2024-02-14T07:18:25;13.60;79.30
35700;DHT22;21818;51.078;12.108;2024-02-14T07:20:51;13.60;79.40
35700;DHT22;21818;51.078;12.108;2024-02-14T07:23:18;13.60;79.50
35700;DHT22;21818;51.078;12.108;2024-02-14T07:25:44;13.60;79.50
35700;DHT22;21818;51.078;12.108;2024-02-14T07:28:10;13.60;79.60
35700;DHT22;21818;51.078;12.108;2024-02-14T07:30:36;13.70;79.60
35700;DHT22;21818;51.078;12.108;2024-02-14T07:33:01;13.70;79.70
35700;DHT22;21818;51.078;12.108;2024-02-14T07:35:27;13.70;79.60
35700;DHT22;21818;51.078;12.108;2024-02-14T07:37:52;13.70;79.60
35700;DHT22;21818;51.078;12.108;2024-02-14T07:40:18;13.80;79.50
35700;DHT22;21818;51.078;12.108;2024-02-14T07:42:44;13.80;79.40
35700;DHT22;21818;51.078;12.108;2024-02-14T07:45:10;13.80;79.30
35700;DHT22;21818;51.078;12.108;2024-02-14T07:47:36;13.80;79.30
35700;DHT22;21818;51.078;12.108;2024-02-14T07:50:01;13.80;79.20
35700;DHT22;21818;51.078;12.108;2024-02-14T07:52:28;13.80;79.20
35700;DHT22;21818;51.078;12.108;2024-02-14T07:54:54;13.80;79.20
35700;DHT22;21818;51.078;12.108;2024-02-14T07:57:22;13.80;79.20
35700;DHT22;21818;51.078;12.108;2024-02-14T07:59:48;13.80;79.20
35700;DHT22;21818;51.078;12.108;2024-02-14T08:02:13;13.80;79.20
35700;DHT22;21818;51.078;12.108;2024-02-14T08:04:39;13.80;79.10
35700;DHT22;21818;51.078;12.108;2024-02-14T08:07:05;13.80;79.10
35700;DHT22;21818;51.078;12.108;2024-02-14T08:09:30;13.80;79.10
35700;DHT22;21818;51.078;12.108;2024-02-14T08:11:56;13.80;79.10
35700;DHT22;21818;51.078;12.108;2024-02-14T08:14:21;13.80;79.10
35700;DHT22;21818;51.078;12.108;2024-02-14T08:16:47;13.80;79.00
35700;DHT22;21818;51.078;12.108;2024-02-14T08:19:13;13.80;79.00
35700;DHT22;21818;51.078;12.108;2024-02-14T08:21:38;13.80;79.00
35700;DHT22;21818;51.078;12.108;2024-02-14T08:24:04;13.80;79.10
35700;DHT22;21818;51.078;12.108;2024-02-14T08:26:30;13.70;79.10
35700;DHT22;21818;51.078;12.108;2024-02-14T08:28:57;13.70;79.30
35700;DHT22;21818;51.078;12.108;2024-02-14T08:31:23;13.70;79.30
35700;DHT22;21818;51.078;12.108;2024-02-14T08:33:49;13.70;79.30
35700;DHT22;21818;51.078;12.108;2024-02-14T08:36:14;13.70;79.30
35700;DHT22;21818;51.078;12.108;2024-02-14T08:38:42;13.70;79.30
35700;DHT22;21818;51.078;12.108;2024-02-14T08:41:08;13.80;79.30
35700;DHT22;21818;51.078;12.108;2024-02-14T08:43:33;13.70;79.30
35700;DHT22;21818;51.078;12.108;2024-02-14T08:45:59;13.80;79.30
35700;DHT22;21818;51.078;12.108;2024-02-14T08:48:24;13.80;79.20
35700;DHT22;21818;51.078;12.108;2024-02-14T08:50:52;13.80;79.20
35700;DHT22;21818;51.078;12.108;2024-02-14T08:53:18;13.90;79.10
35700;DHT22;21818;51.078;12.108;2024-02-14T08:55:44;13.90;79.10
35700;DHT22;21818;51.078;12.108;2024-02-14T08:58:09;13.90;79.10
35700;DHT22;21818;51.078;12.108;2024-02-14T09:00:36;13.90;79.10
35700;DHT22;21818;51.078;12.108;2024-02-14T09:03:03;13.90;79.00
35700;DHT22;21818;51.078;12.108;2024-02-14T09:05:28;14.00;79.10
35700;DHT22;21818;51.078;12.108;2024-02-14T09:07:54;14.00;79.00
35700;DHT22;21818;51.078;12.108;2024-02-14T09:10:20;14.00;79.00
35700;DHT22;21818;51.078;12.108;2024-02-14T09:12:46;14.00;79.00
35700;DHT22;21818;51.078;12.108;2024-02-14T09:15:11;14.00;79.00
35700;DHT22;21818;51.078;12.108;2024-02-14T09:17:37;14.00;78.90
35700;DHT22;21818;51.078;12.108;2024-02-14T09:20:06;14.00;78.90
35700;DHT22;21818;51.078;12.108;2024-02-14T09:22:35;14.10;79.00
35700;DHT22;21818;51.078;12.108;2024-02-14T09:25:01;14.00;78.90
35700;DHT22;21818;51.078;12.108;2024-02-14T09:27:32;14.00;78.90
35700;DHT22;21818;51.078;12.108;2024-02-14T09:29:58;14.00;78.90
35700;DHT22;21818;51.078;12.108;2024-02-14T09:32:24;14.00;78.90
35700;DHT22;21818;51.078;12.108;2024-02-14T09:34:50;14.00;78.90
35700;DHT22;21818;51.078;12.108;2024-02-14T09:37:16;14.10;79.00
35700;DHT22;21818;51.078;12.108;2024-02-14T09:39:42;14.10;78.90
35700;DHT22;21818;51.078;12.108;2024-02-14T09:42:13;14.10;78.90
35700;DHT22;21818;51.078;12.108;2024-02-14T09:44:39;14.10;78.90
35700;DHT22;21818;51.078;12.108;2024-02-14T09:47:05;14.10;79.00
35700;DHT22;21818;51.078;12.108;2024-02-14T09:49:32;14.10;79.00
35700;DHT22;21818;51.078;12.108;2024-02-14T09:52:01;14.10;79.00
35700;DHT22;21818;51.078;12.108;2024-02-14T09:54:28;14.10;79.10
35700;DHT22;21818;51.078;12.108;2024-02-14T09:56:57;14.10;79.10
35700;DHT22;21818;51.078;12.108;2024-02-14T09:59:23;14.10;79.10
35700;DHT22;21818;51.078;12.108;2024-02-14T10:01:49;14.10;79.20
35700;DHT22;21818;51.078;12.108;2024-02-14T10:04:16;14.10;79.20
35700;DHT22;21818;51.078;12.108;2024-02-14T10:06:44;14.10;79.20
35700;DHT22;21818;51.078;12.108;2024-02-14T10:09:10;14.00;79.20
35700;DHT22;21818;51.078;12.108;2024-02-14T10:11:35;14.00;79.30
35700;DHT22;21818;51.078;12.108;2024-02-14T10:14:02;14.10;79.20
35700;DHT22;21818;51.078;12.108;2024-02-14T10:16:29;14.10;79.10
35700;DHT22;21818;51.078;12.108;2024-02-14T10:19:17;14.20;79.10
35700;DHT22;21818;51.078;12.108;2024-02-14T10:21:43;14.20;78.90
35700;DHT22;21818;51.078;12.108;2024-02-14T10:24:08;14.20;78.90
35700;DHT22;21818;51.078;12.108;2024-02-14T10:26:37;14.20;78.90
35700;DHT22;21818;51.078;12.108;2024-02-14T10:29:02;14.20;78.90
35700;DHT22;21818;51.078;12.108;2024-02-14T10:31:28;14.20;79.00
35700;DHT22;21818;51.078;12.108;2024-02-14T10:33:57;14.10;79.10
35700;DHT22;21818;51.078;12.108;2024-02-14T10:36:23;14.10;79.20
35700;DHT22;21818;51.078;12.108;2024-02-14T10:38:50;14.10;79.20
35700;DHT22;21818;51.078;12.108;2024-02-14T10:41:16;14.10;79.30
35700;DHT22;21818;51.078;12.108;2024-02-14T10:43:43;14.20;79.20
35700;DHT22;21818;51.078;12.108;2024-02-14T10:46:23;14.20;79.10
35700;DHT22;21818;51.078;12.108;2024-02-14T10:48:53;14.20;79.10
35700;DHT22;21818;51.078;12.108;2024-02-14T10:51:19;14.20;79.00
35700;DHT22;21818;51.078;12.108;2024-02-14T10:53:46;14.30;78.90
35700;DHT22;21818;51.078;12.108;2024-02-14T10:56:17;14.20;79.10
35700;DHT22;21818;51.078;12.108;2024-02-14T10:58:46;14.20;79.10
35700;DHT22;21818;51.078;12.108;2024-02-14T11:01:13;14.20;79.20
35700;DHT22;21818;51.078;12.108;2024-02-14T11:03:41;14.20;79.30
35700;DHT22;21818;51.078;12.108;2024-02-14T11:06:06;14.20;79.30
35700;DHT22;21818;51.078;12.108;2024-02-14T11:08:32;14.20;79.30
35700;DHT22;21818;51.078;12.108;2024-02-14T11:10:59;14.30;79.40
35700;DHT22;21818;51.078;12.108;2024-02-14T11:13:26;14.20;79.40
35700;DHT22;21818;51.078;12.108;2024-02-14T11:15:53;14.30;79.40
35700;DHT22;21818;51.078;12.108;2024-02-14T11:18:30;14.30;79.40
35700;DHT22;21818;51.078;12.108;2024-02-14T11:20:56;14.30;79.40
35700;DHT22;21818;51.078;12.108;2024-02-14T11:23:25;14.30;79.40
35700;DHT22;21818;51.078;12.108;2024-02-14T11:26:05;14.30;79.40
35700;DHT22;21818;51.078;12.108;2024-02-14T11:28:37;14.30;79.40
35700;DHT22;21818;51.078;12.108;2024-02-14T11:31:07;14.40;79.30
35700;DHT22;21818;51.078;12.108;2024-02-14T11:33:35;14.40;79.10
35700;DHT22;21818;51.078;12.108;2024-02-14T11:36:07;14.50;79.10
35700;DHT22;21818;51.078;12.108;2024-02-14T11:38:36;14.50;79.00
35700;DHT22;21818;51.078;12.108;2024-02-14T11:41:02;14.50;79.10
35700;DHT22;21818;51.078;12.108;2024-02-14T11:43:29;14.40;79.10
35700;DHT22;21818;51.078;12.108;2024-02-14T11:45:55;14.40;79.20
35700;DHT22;21818;51.078;12.108;2024-02-14T11:48:21;14.40;79.80
35700;DHT22;21818;51.078;12.108;2024-02-14T11:50:49;14.40;79.30
35700;DHT22;21818;51.078;12.108;2024-02-14T11:53:17;14.40;79.20
35700;DHT22;21818;51.078;12.108;2024-02-14T11:55:44;14.50;79.20
35700;DHT22;21818;51.078;12.108;2024-02-14T11:58:13;14.50;79.10
35700;DHT22;21818;51.078;12.108;2024-02-14T12:00:45;14.60;79.00
35700;DHT22;21818;51.078;12.108;2024-02-14T12:03:14;14.60;79.00
35700;DHT22;21818;51.078;12.108;2024-02-14T12:05:40;14.60;79.00
35700;DHT22;21818;51.078;12.108;2024-02-14T12:08:08;14.60;79.00
35700;DHT22;21818;51.078;12.108;2024-02-14T12:10:35;14.60;79.00
35700;DHT22;21818;51.078;12.108;2024-02-14T12:13:10;14.60;78.90
35700;DHT22;21818;51.078;12.108;2024-02-14T12:15:50;14.60;79.00
35700;DHT22;21818;51.078;12.108;2024-02-14T12:18:17;14.70;79.00
35700;DHT22;21818;51.078;12.108;2024-02-14T12:20:45;14.70;79.00
35700;DHT22;21818;51.078;12.108;2024-02-14T12:23:16;14.70;79.00
35700;DHT22;21818;51.078;12.108;2024-02-14T12:25:45;14.70;79.00
35700;DHT22;21818;51.078;12.108;2024-02-14T12:28:18;14.80;79.50
35700;DHT22;21818;51.078;12.108;2024-02-14T12:33:12;14.90;78.80
35700;DHT22;21818;51.078;12.108;2024-02-14T12:35:41;14.90;78.60
35700;DHT22;21818;51.078;12.108;2024-02-14T12:38:10;15.10;79.10
35700;DHT22;21818;51.078;12.108;2024-02-14T12:40:36;15.00;78.40
35700;DHT22;21818;51.078;12.108;2024-02-14T12:43:02;15.10;78.50
35700;DHT22;21818;51.078;12.108;2024-02-14T12:45:29;15.00;78.50
35700;DHT22;21818;51.078;12.108;2024-02-14T12:47:55;14.90;78.60
35700;DHT22;21818;51.078;12.108;2024-02-14T12:50:20;14.90;78.70
35700;DHT22;21818;51.078;12.108;2024-02-14T12:52:46;14.80;78.70
35700;DHT22;21818;51.078;12.108;2024-02-14T12:55:14;14.80;78.70
35700;DHT22;21818;51.078;12.108;2024-02-14T12:57:39;14.80;78.70
35700;DHT22;21818;51.078;12.108;2024-02-14T13:00:06;14.80;78.70
35700;DHT22;21818;51.078;12.108;2024-02-14T13:02:34;14.80;78.80
35700;DHT22;21818;51.078;12.108;2024-02-14T13:05:00;14.80;78.80
35700;DHT22;21818;51.078;12.108;2024-02-14T13:07:27;14.80;78.90
35700;DHT22;21818;51.078;12.108;2024-02-14T13:09:53;14.80;78.90
35700;DHT22;21818;51.078;12.108;2024-02-14T13:12:20;14.70;78.90
35700;DHT22;21818;51.078;12.108;2024-02-14T13:14:46;14.70;79.00
35700;DHT22;21818;51.078;12.108;2024-02-14T13:17:12;14.70;79.00
35700;DHT22;21818;51.078;12.108;2024-02-14T13:19:37;14.70;79.00
35700;DHT22;21818;51.078;12.108;2024-02-14T13:22:05;14.70;79.10
35700;DHT22;21818;51.078;12.108;2024-02-14T13:24:30;14.70;79.10
35700;DHT22;21818;51.078;12.108;2024-02-14T13:26:56;14.60;79.10
35700;DHT22;21818;51.078;12.108;2024-02-14T13:29:23;14.70;79.00
35700;DHT22;21818;51.078;12.108;2024-02-14T13:31:50;14.70;79.00
35700;DHT22;21818;51.078;12.108;2024-02-14T13:34:15;14.70;78.80
35700;DHT22;21818;51.078;12.108;2024-02-14T13:36:41;14.70;78.80
35700;DHT22;21818;51.078;12.108;2024-02-14T13:39:07;14.80;78.70
35700;DHT22;21818;51.078;12.108;2024-02-14T13:41:33;14.80;78.70
35700;DHT22;21818;51.078;12.108;2024-02-14T13:43:59;14.80;78.70
35700;DHT22;21818;51.078;12.108;2024-02-14T13:46:24;14.80;78.70
35700;DHT22;21818;51.078;12.108;2024-02-14T13:48:51;14.80;78.70
35700;DHT22;21818;51.078;12.108;2024-02-14T13:51:17;14.70;78.70
35700;DHT22;21818;51.078;12.108;2024-02-14T13:53:42;14.70;78.80
35700;DHT22;21818;51.078;12.108;2024-02-14T13:56:09;14.70;78.90
35700;DHT22;21818;51.078;12.108;2024-02-14T13:58:34;14.70;79.00
35700;DHT22;21818;51.078;12.108;2024-02-14T14:01:00;14.60;79.10
35700;DHT22;21818;51.078;12.108;2024-02-14T14:03:26;14.60;79.10
35700;DHT22;21818;51.078;12.108;2024-02-14T14:05:53;14.60;79.20
35700;DHT22;21818;51.078;12.108;2024-02-14T14:08:18;14.60;79.20
35700;DHT22;21818;51.078;12.108;2024-02-14T14:10:44;14.60;79.30
35700;DHT22;21818;51.078;12.108;2024-02-14T14:13:10;14.60;79.40
35700;DHT22;21818;51.078;12.108;2024-02-14T14:15:36;14.60;79.30
35700;DHT22;21818;51.078;12.108;2024-02-14T14:18:02;14.60;79.30
35700;DHT22;21818;51.078;12.108;2024-02-14T14:20:27;14.60;79.30
35700;DHT22;21818;51.078;12.108;2024-02-14T14:22:53;14.60;79.30
35700;DHT22;21818;51.078;12.108;2024-02-14T14:25:18;14.60;79.30
35700;DHT22;21818;51.078;12.108;2024-02-14T14:27:44;14.60;79.40
35700;DHT22;21818;51.078;12.108;2024-02-14T14:33:18;14.60;79.30
35700;DHT22;21818;51.078;12.108;2024-02-14T14:35:44;14.50;79.30
35700;DHT22;21818;51.078;12.108;2024-02-14T14:38:09;14.60;79.40
35700;DHT22;21818;51.078;12.108;2024-02-14T14:40:36;14.60;79.30
35700;DHT22;21818;51.078;12.108;2024-02-14T14:43:03;14.70;79.30
35700;DHT22;21818;51.078;12.108;2024-02-14T14:45:29;14.70;79.20
35700;DHT22;21818;51.078;12.108;2024-02-14T14:47:56;14.70;79.00
35700;DHT22;21818;51.078;12.108;2024-02-14T14:50:22;14.80;79.10
35700;DHT22;21818;51.078;12.108;2024-02-14T14:52:47;14.80;79.00
35700;DHT22;21818;51.078;12.108;2024-02-14T14:55:13;14.80;79.00
35700;DHT22;21818;51.078;12.108;2024-02-14T14:57:39;14.80;79.00
35700;DHT22;21818;51.078;12.108;2024-02-14T15:00:09;14.80;78.90
35700;DHT22;21818;51.078;12.108;2024-02-14T15:02:42;14.80;78.90
35700;DHT22;21818;51.078;12.108;2024-02-14T15:05:12;14.80;78.90
35700;DHT22;21818;51.078;12.108;2024-02-14T15:07:40;14.80;78.90
35700;DHT22;21818;51.078;12.108;2024-02-14T15:10:07;14.80;78.90
35700;DHT22;21818;51.078;12.108;2024-02-14T15:12:36;14.80;78.90
35700;DHT22;21818;51.078;12.108;2024-02-14T15:15:05;14.80;79.00
35700;DHT22;21818;51.078;12.108;2024-02-14T15:17:31;14.70;79.10